Time;durP1;ratioP1;P1;durP2;ratioP2;P2;SDS_P1;SDS_P2;PMS_P1;PMS_P2;Temp;Humidity;BMP_temperature;BMP_pressure;BME280_temperature;BME280_humidity;BME280_pressure;Samples;Min_cycle;Max_cycle;Signal;HPM_P1;HPM_P2
2021/12/10 00:00:14;;;;;;;21.65;12.25;;;5.00;93.40;;;;;;5052865;28;20299;-75
2021/12/10 00:02:45;;;;;;;22.30;11.70;;;5.10;93.30;;;;;;5054307;28;20082;-75
2021/12/10 00:05:14;;;;;;;23.50;12.82;;;5.30;93.30;;;;;;5049278;28;20412;-75
2021/12/10 00:07:40;;;;;;;21.42;12.00;;;5.40;93.10;;;;;;5053854;28;20041;-75
2021/12/10 00:10:10;;;;;;;22.20;11.43;;;5.40;93.90;;;;;;5050884;28;20512;-75
2021/12/10 00:12:40;;;;;;;19.60;11.32;;;5.40;95.00;;;;;;5048585;28;20017;-75
2021/12/10 00:15:07;;;;;;;22.10;12.07;;;5.30;94.30;;;;;;5053332;28;20409;-75
2021/12/10 00:17:33;;;;;;;24.50;11.60;;;5.30;94.10;;;;;;5050233;28;20111;-75
2021/12/10 00:20:01;;;;;;;20.55;12.07;;;5.30;94.60;;;;;;5050137;28;20480;-75
2021/12/10 00:22:39;;;;;;;21.20;12.43;;;5.30;94.70;;;;;;5047674;28;20029;-75
2021/12/10 00:25:09;;;;;;;21.58;13.25;;;5.30;94.90;;;;;;5040299;28;20444;-75
2021/12/10 00:27:35;;;;;;;19.70;12.27;;;5.20;94.80;;;;;;5051164;28;20091;-75
2021/12/10 00:30:11;;;;;;;22.02;11.73;;;5.30;95.30;;;;;;5053415;28;20459;-75
2021/12/10 00:32:45;;;;;;;18.38;11.38;;;5.30;95.60;;;;;;5049656;28;20040;-75
2021/12/10 00:35:18;;;;;;;19.38;11.70;;;5.40;94.90;;;;;;5044776;28;20531;-75
2021/12/10 00:37:45;;;;;;;20.63;11.35;;;5.40;95.40;;;;;;5056601;28;20043;-74
2021/12/10 00:40:14;;;;;;;20.35;11.13;;;5.40;95.00;;;;;;5053113;28;20040;-75
2021/12/10 00:42:40;;;;;;;15.20;8.93;;;5.20;95.70;;;;;;5051041;28;20049;-75
2021/12/10 00:45:10;;;;;;;15.93;9.63;;;5.10;95.80;;;;;;5059043;28;20064;-75
2021/12/10 00:47:36;;;;;;;17.60;9.32;;;4.90;95.90;;;;;;5055101;28;20041;-75
2021/12/10 00:50:05;;;;;;;18.33;9.90;;;4.80;95.80;;;;;;5049151;28;20021;-75
2021/12/10 00:52:30;;;;;;;17.15;9.00;;;4.90;97.20;;;;;;5048698;28;20071;-76
2021/12/10 00:54:56;;;;;;;16.30;9.40;;;5.10;98.50;;;;;;5052764;28;20504;-75
2021/12/10 00:57:22;;;;;;;16.05;8.30;;;5.10;98.60;;;;;;5054755;28;20021;-75
2021/12/10 00:59:50;;;;;;;14.40;8.13;;;5.10;99.80;;;;;;5052745;28;20029;-75
2021/12/10 01:02:19;;;;;;;15.75;8.55;;;4.90;99.50;;;;;;5049061;28;20043;-74
2021/12/10 01:04:48;;;;;;;14.00;8.18;;;5.00;99.90;;;;;;5050866;28;20044;-75
2021/12/10 01:07:19;;;;;;;16.52;8.05;;;5.10;99.90;;;;;;5049396;28;20553;-75
2021/12/10 01:09:48;;;;;;;12.65;6.82;;;5.10;99.90;;;;;;5052086;28;20429;-74
2021/12/10 01:12:38;;;;;;;11.50;6.38;;;5.20;99.90;;;;;;5054862;28;20017;-74
2021/12/10 01:16:13;;;;;;;14.98;6.80;;;5.10;99.90;;;;;;5055641;28;20032;-74
2021/12/10 01:23:57;;;;;;;9.88;5.07;;;5.30;99.90;;;;;;5053401;28;20043;-75
2021/12/10 01:26:55;;;;;;;11.68;5.38;;;5.40;99.90;;;;;;5052629;28;20052;-75
2021/12/10 01:29:28;;;;;;;16.23;7.80;;;5.40;99.90;;;;;;5053313;28;20021;-75
2021/12/10 01:31:55;;;;;;;15.90;5.80;;;5.50;99.90;;;;;;5050811;28;20032;-76
2021/12/10 01:34:21;;;;;;;12.75;4.60;;;5.40;99.90;;;;;;5049326;28;20033;-76
2021/12/10 01:36:47;;;;;;;10.55;3.88;;;5.40;99.90;;;;;;5050359;28;20029;-76
2021/12/10 01:39:17;;;;;;;5.55;2.83;;;5.60;99.90;;;;;;5054518;28;20032;-75
2021/12/10 01:41:53;;;;;;;11.82;3.05;;;5.70;99.90;;;;;;5050160;28;20033;-75
2021/12/10 01:44:27;;;;;;;6.68;2.47;;;5.70;99.90;;;;;;5053178;28;20025;-76
2021/12/10 01:46:55;;;;;;;6.80;2.70;;;5.80;99.90;;;;;;5047846;28;20029;-75
2021/12/10 01:49:21;;;;;;;8.65;3.15;;;5.90;99.90;;;;;;5048499;28;20028;-76
2021/12/10 01:51:47;;;;;;;8.10;2.97;;;5.90;99.90;;;;;;5048482;28;20037;-76
2021/12/10 01:54:23;;;;;;;6.43;3.00;;;5.70;99.90;;;;;;5057117;28;20021;-76
2021/12/10 01:56:51;;;;;;;9.63;2.80;;;5.70;99.90;;;;;;5053493;28;20417;-76
2021/12/10 01:59:19;;;;;;;5.50;2.42;;;5.80;99.90;;;;;;5056320;28;20075;-76
2021/12/10 02:01:50;;;;;;;6.68;2.00;;;5.80;99.90;;;;;;5053089;28;20048;-75
2021/12/10 02:04:19;;;;;;;7.45;2.28;;;5.70;99.90;;;;;;5053518;28;20015;-76
2021/12/10 02:06:45;;;;;;;7.18;2.70;;;5.80;99.90;;;;;;5056308;28;20035;-76
2021/12/10 02:09:11;;;;;;;6.38;2.53;;;5.80;99.90;;;;;;5060355;28;20100;-76
2021/12/10 02:11:37;;;;;;;8.73;4.15;;;5.90;99.90;;;;;;5058634;28;20532;-76
2021/12/10 02:14:03;;;;;;;11.02;4.80;;;6.00;99.90;;;;;;5062701;28;20028;-76
2021/12/10 02:16:29;;;;;;;10.10;4.55;;;5.90;99.90;;;;;;5057779;28;20055;-76
2021/12/10 02:18:55;;;;;;;9.07;4.30;;;5.80;99.90;;;;;;5055518;28;20108;-76
2021/12/10 02:21:24;;;;;;;13.65;6.40;;;5.60;99.90;;;;;;5059310;28;20066;-76
2021/12/10 02:23:57;;;;;;;13.40;8.02;;;5.80;99.90;;;;;;5056176;28;20481;-76
2021/12/10 02:26:29;;;;;;;17.13;8.85;;;5.60;99.90;;;;;;5061687;28;20072;-76
2021/12/10 02:28:55;;;;;;;15.05;9.98;;;5.60;99.90;;;;;;5054910;28;20039;-76
2021/12/10 02:31:21;;;;;;;19.33;11.05;;;5.50;99.90;;;;;;5054543;28;20033;-76
2021/12/10 02:33:47;;;;;;;19.33;11.00;;;5.40;99.90;;;;;;5054306;28;20067;-76
2021/12/10 02:36:13;;;;;;;17.67;11.13;;;5.40;99.90;;;;;;5053762;28;20481;-76
2021/12/10 02:38:45;;;;;;;15.38;10.60;;;5.30;99.90;;;;;;5053077;28;20030;-76
2021/12/10 02:41:12;;;;;;;18.15;10.48;;;5.30;99.90;;;;;;5056945;28;20497;-76
2021/12/10 02:43:38;;;;;;;18.60;10.90;;;5.20;99.90;;;;;;5051062;28;20025;-77
2021/12/10 02:46:04;;;;;;;17.40;11.05;;;5.20;99.90;;;;;;5053577;28;20037;-77
2021/12/10 02:48:30;;;;;;;23.92;9.90;;;5.30;99.90;;;;;;5053737;28;20095;-76
2021/12/10 02:50:57;;;;;;;15.18;10.23;;;5.30;99.90;;;;;;5050556;28;20029;-76
2021/12/10 02:53:27;;;;;;;14.75;9.65;;;5.30;99.90;;;;;;5056308;28;20016;-77
2021/12/10 02:55:57;;;;;;;13.55;8.32;;;5.30;99.90;;;;;;5051491;28;20040;-76
2021/12/10 02:58:23;;;;;;;20.58;9.10;;;5.40;99.90;;;;;;5052827;28;20017;-76
2021/12/10 03:00:53;;;;;;;13.13;8.35;;;5.30;99.90;;;;;;5052813;28;20045;-76
2021/12/10 03:03:19;;;;;;;17.75;9.18;;;5.40;99.90;;;;;;5049860;28;20501;-77
2021/12/10 03:05:45;;;;;;;14.38;8.13;;;5.40;99.90;;;;;;5058824;28;20033;-76
2021/12/10 03:08:11;;;;;;;12.65;7.75;;;5.40;99.90;;;;;;5065500;28;20021;-76
2021/12/10 03:10:38;;;;;;;12.27;4.88;;;5.40;99.90;;;;;;5059731;28;20066;-77
2021/12/10 03:13:05;;;;;;;10.32;3.97;;;5.30;99.90;;;;;;5056370;28;20057;-77
2021/12/10 03:15:32;;;;;;;9.98;4.40;;;5.20;99.90;;;;;;5060328;28;20477;-77
2021/12/10 03:17:59;;;;;;;6.93;3.78;;;5.20;99.90;;;;;;5058653;28;20126;-77
2021/12/10 03:20:28;;;;;;;8.80;3.28;;;5.30;99.90;;;;;;5064608;28;20497;-77
2021/12/10 03:22:54;;;;;;;6.85;3.15;;;5.10;99.90;;;;;;5061887;28;20024;-76
2021/12/10 03:25:20;;;;;;;9.93;3.25;;;5.00;99.90;;;;;;5056750;28;20078;-76
2021/12/10 03:27:47;;;;;;;9.63;3.10;;;5.00;99.90;;;;;;5057484;28;20397;-77
2021/12/10 03:30:18;;;;;;;7.43;3.10;;;5.10;99.90;;;;;;5060293;28;20486;-76
2021/12/10 03:32:44;;;;;;;7.85;3.60;;;5.20;99.90;;;;;;5054349;28;20049;-77
2021/12/10 03:35:22;;;;;;;10.38;4.35;;;5.40;99.90;;;;;;5063808;28;20064;-76
2021/12/10 03:37:47;;;;;;;10.07;3.53;;;5.30;99.90;;;;;;5063158;28;20021;-76
2021/12/10 03:40:16;;;;;;;7.93;3.20;;;5.20;99.90;;;;;;5055437;28;20040;-77
2021/12/10 03:42:43;;;;;;;7.35;2.65;;;5.20;99.90;;;;;;5057721;28;20027;-76
2021/12/10 03:45:12;;;;;;;9.35;3.45;;;5.10;99.90;;;;;;5053227;28;20029;-77
2021/12/10 03:47:38;;;;;;;7.85;3.15;;;5.10;99.90;;;;;;5054911;28;20033;-77
2021/12/10 03:50:06;;;;;;;6.68;2.78;;;4.90;99.90;;;;;;5054869;28;20017;-76
2021/12/10 03:52:32;;;;;;;7.18;2.85;;;5.10;99.90;;;;;;5052425;28;20071;-77
2021/12/10 03:55:00;;;;;;;6.28;2.72;;;4.90;99.90;;;;;;5051337;28;20025;-77
2021/12/10 03:57:26;;;;;;;4.72;2.30;;;4.90;99.90;;;;;;5042564;28;20468;-76
2021/12/10 03:59:52;;;;;;;6.85;2.30;;;5.00;99.90;;;;;;5058390;28;20053;-76
2021/12/10 04:02:18;;;;;;;5.35;2.33;;;5.10;99.90;;;;;;5060638;28;20037;-76
2021/12/10 04:04:47;;;;;;;5.20;2.50;;;5.30;99.90;;;;;;5054818;28;20481;-76
2021/12/10 04:07:16;;;;;;;7.82;2.22;;;5.40;99.90;;;;;;5051701;28;20087;-77
2021/12/10 04:09:43;;;;;;;7.40;2.38;;;5.10;99.90;;;;;;5054824;28;20465;-76
2021/12/10 04:12:10;;;;;;;8.02;2.47;;;5.00;99.90;;;;;;5056583;28;20027;-76
2021/12/10 04:14:37;;;;;;;4.85;2.38;;;5.00;99.90;;;;;;5060187;28;20456;-76
2021/12/10 04:17:05;;;;;;;10.75;5.78;;;4.80;99.90;;;;;;5058673;28;20112;-76
2021/12/10 04:19:33;;;;;;;7.30;2.80;;;4.80;99.90;;;;;;5050386;28;20017;-77
2021/12/10 04:22:00;;;;;;;7.45;2.80;;;4.90;99.90;;;;;;5056557;28;20505;-76
2021/12/10 04:24:30;;;;;;;7.75;2.88;;;4.80;99.90;;;;;;5058073;28;20021;-76
2021/12/10 04:26:57;;;;;;;6.93;2.80;;;4.70;99.90;;;;;;5050145;28;20075;-76
2021/12/10 04:29:23;;;;;;;7.63;2.90;;;4.70;99.90;;;;;;5054317;28;20021;-76
2021/12/10 04:31:52;;;;;;;8.95;3.55;;;4.80;99.90;;;;;;5050648;28;20485;-77
2021/12/10 04:34:18;;;;;;;6.80;3.13;;;4.80;99.90;;;;;;5050418;28;20539;-76
2021/12/10 04:36:45;;;;;;;9.18;3.15;;;4.90;99.90;;;;;;5050506;28;20024;-77
2021/12/10 04:39:11;;;;;;;9.25;3.28;;;4.80;99.90;;;;;;5049288;28;20378;-77
2021/12/10 04:41:36;;;;;;;8.48;3.83;;;4.90;99.90;;;;;;5053374;28;20049;-77
2021/12/10 04:44:03;;;;;;;9.35;4.97;;;5.00;99.90;;;;;;5050986;28;20032;-77
2021/12/10 04:46:29;;;;;;;11.77;4.43;;;5.10;99.90;;;;;;5049376;28;20504;-77
2021/12/10 04:49:03;;;;;;;9.65;3.80;;;5.00;99.90;;;;;;5049871;28;20024;-77
2021/12/10 04:51:33;;;;;;;12.10;4.90;;;5.10;99.90;;;;;;5048938;28;20579;-77
2021/12/10 04:54:00;;;;;;;11.52;4.13;;;5.20;99.90;;;;;;5049289;28;20032;-77
2021/12/10 04:56:27;;;;;;;9.35;3.92;;;5.30;99.90;;;;;;5053596;28;20025;-77
2021/12/10 04:58:54;;;;;;;13.45;3.97;;;5.30;99.90;;;;;;5048888;28;20508;-77
2021/12/10 05:01:20;;;;;;;12.00;3.97;;;5.30;99.90;;;;;;5053198;28;20048;-77
2021/12/10 05:03:46;;;;;;;10.65;4.22;;;5.30;99.90;;;;;;5048495;28;20055;-77
2021/12/10 05:06:12;;;;;;;14.65;4.72;;;5.30;99.90;;;;;;5047343;28;20502;-78
2021/12/10 05:08:39;;;;;;;13.68;5.53;;;5.30;99.90;;;;;;5051932;28;20410;-77
2021/12/10 05:11:07;;;;;;;9.68;4.68;;;5.30;99.90;;;;;;5050049;28;20035;-78
2021/12/10 05:13:34;;;;;;;11.50;6.07;;;5.20;99.90;;;;;;5047232;28;20396;-77
2021/12/10 05:16:00;;;;;;;14.23;6.50;;;5.10;99.90;;;;;;5047800;28;20032;-77
2021/12/10 05:18:28;;;;;;;14.27;7.38;;;5.00;99.90;;;;;;5047151;28;20029;-78
2021/12/10 05:20:55;;;;;;;12.50;7.30;;;4.70;99.90;;;;;;5048901;28;20095;-78
2021/12/10 05:23:21;;;;;;;14.85;7.82;;;4.40;99.90;;;;;;5051420;28;20017;-78
2021/12/10 05:25:47;;;;;;;13.45;6.82;;;4.50;99.90;;;;;;5046808;28;20108;-78
2021/12/10 05:28:13;;;;;;;12.00;6.45;;;4.50;99.90;;;;;;5045670;28;20029;-78
2021/12/10 05:30:39;;;;;;;7.90;5.20;;;4.40;99.90;;;;;;5046700;28;20095;-78
2021/12/10 05:33:05;;;;;;;11.55;5.25;;;4.30;99.90;;;;;;5046916;28;20132;-77
2021/12/10 05:35:32;;;;;;;9.98;5.97;;;4.40;99.90;;;;;;5050841;28;20035;-78
2021/12/10 05:37:59;;;;;;;8.93;5.90;;;4.50;99.90;;;;;;5045140;28;20013;-77
2021/12/10 05:40:27;;;;;;;11.32;5.63;;;4.60;99.90;;;;;;5048223;28;20517;-78
2021/12/10 05:42:53;;;;;;;11.73;5.93;;;4.60;99.90;;;;;;5051521;28;20486;-78
2021/12/10 05:45:21;;;;;;;12.23;6.43;;;4.70;99.90;;;;;;5053221;28;20037;-78
2021/12/10 05:47:48;;;;;;;11.75;5.70;;;4.70;99.90;;;;;;5056988;28;20013;-78
2021/12/10 05:50:16;;;;;;;14.38;7.18;;;4.60;99.90;;;;;;5056657;28;20481;-78
2021/12/10 05:52:42;;;;;;;13.55;7.68;;;4.40;99.90;;;;;;5049753;28;20031;-78
2021/12/10 05:55:09;;;;;;;17.08;8.02;;;4.30;99.90;;;;;;5050956;28;20021;-77
2021/12/10 05:57:35;;;;;;;14.57;7.90;;;4.30;99.90;;;;;;5053639;28;20037;-78
2021/12/10 06:00:01;;;;;;;19.75;9.35;;;4.40;99.90;;;;;;5056190;28;20013;-78
2021/12/10 06:02:27;;;;;;;20.58;10.18;;;4.50;99.90;;;;;;5057370;28;20090;-78
2021/12/10 06:04:53;;;;;;;16.98;9.38;;;4.60;99.90;;;;;;5050260;28;20424;-78
2021/12/10 06:07:18;;;;;;;16.95;8.55;;;4.60;99.90;;;;;;5047896;28;20029;-77
2021/12/10 06:09:44;;;;;;;16.35;8.95;;;4.60;99.90;;;;;;5052229;28;20055;-78
2021/12/10 06:12:10;;;;;;;13.43;7.63;;;4.70;99.90;;;;;;5052959;28;20021;-77
2021/12/10 06:14:36;;;;;;;16.35;8.80;;;4.80;99.90;;;;;;5056441;28;20115;-77
2021/12/10 06:17:03;;;;;;;15.25;8.63;;;4.80;99.90;;;;;;5054690;28;20024;-77
2021/12/10 06:19:28;;;;;;;16.70;8.82;;;4.80;99.90;;;;;;5052396;28;20032;-77
2021/12/10 06:21:54;;;;;;;16.92;9.35;;;4.70;99.90;;;;;;5048634;28;20085;-78
2021/12/10 06:24:20;;;;;;;14.38;8.30;;;4.90;99.90;;;;;;5047765;28;20021;-78
2021/12/10 06:26:46;;;;;;;12.85;8.48;;;4.80;99.90;;;;;;5055845;28;20044;-78
2021/12/10 06:29:12;;;;;;;14.65;8.98;;;4.80;99.90;;;;;;5055868;28;20032;-85
2021/12/10 06:31:38;;;;;;;17.73;9.88;;;4.90;99.90;;;;;;5055586;28;20605;-88
2021/12/10 06:34:04;;;;;;;15.07;8.95;;;4.90;99.90;;;;;;5052885;28;20369;-84
2021/12/10 06:36:30;;;;;;;14.50;8.75;;;4.90;99.90;;;;;;5050570;28;20492;-81
2021/12/10 06:38:57;;;;;;;14.85;9.88;;;4.90;99.90;;;;;;5057968;28;20048;-86
2021/12/10 06:41:23;;;;;;;18.73;9.95;;;4.90;99.90;;;;;;5055878;28;20082;-85
2021/12/10 06:43:49;;;;;;;17.27;10.00;;;5.00;99.90;;;;;;5057144;28;20021;-84
2021/12/10 06:46:16;;;;;;;16.70;10.32;;;5.00;99.90;;;;;;5053222;28;20064;-88
2021/12/10 06:48:42;;;;;;;17.67;10.27;;;4.90;99.90;;;;;;5049762;28;20463;-85
2021/12/10 06:51:11;;;;;;;20.73;12.45;;;5.00;99.90;;;;;;5053553;28;20017;-85
2021/12/10 06:53:42;;;;;;;16.10;9.05;;;5.00;99.90;;;;;;5058151;28;20043;-82
2021/12/10 06:56:08;;;;;;;18.00;9.40;;;5.10;99.90;;;;;;5054892;28;20021;-83
2021/12/10 06:58:35;;;;;;;16.42;9.95;;;5.10;99.90;;;;;;5047323;28;20021;-84
2021/12/10 07:01:16;;;;;;;13.27;8.55;;;5.10;99.90;;;;;;5051768;28;20119;-83
2021/12/10 07:03:42;;;;;;;13.77;8.75;;;5.20;99.90;;;;;;5053122;28;20043;-82
2021/12/10 07:06:09;;;;;;;13.98;9.05;;;5.20;99.90;;;;;;5053897;28;20032;-82
2021/12/10 07:08:38;;;;;;;15.52;10.68;;;5.20;99.90;;;;;;5055398;28;20036;-79
2021/12/10 07:11:05;;;;;;;20.13;11.70;;;5.20;99.90;;;;;;5050688;28;20238;-80
2021/12/10 07:13:37;;;;;;;16.65;11.05;;;5.20;99.90;;;;;;5047559;28;20033;-79
2021/12/10 07:16:04;;;;;;;16.48;10.63;;;5.00;99.90;;;;;;5051149;28;20040;-79
2021/12/10 07:18:30;;;;;;;15.75;9.25;;;5.00;99.90;;;;;;5052279;28;20053;-79
2021/12/10 07:20:56;;;;;;;15.38;9.77;;;5.10;99.90;;;;;;5055281;28;20068;-79
2021/12/10 07:23:22;;;;;;;15.05;9.55;;;5.00;99.90;;;;;;5053850;28;20024;-77
2021/12/10 07:25:48;;;;;;;19.95;10.18;;;4.90;99.90;;;;;;5048427;28;20028;-77
2021/12/10 07:28:14;;;;;;;15.85;10.20;;;5.00;99.90;;;;;;5049175;28;20036;-77
2021/12/10 07:30:40;;;;;;;15.68;10.00;;;5.00;99.90;;;;;;5051778;28;20079;-77
2021/12/10 07:33:07;;;;;;;18.70;10.32;;;5.00;99.90;;;;;;5057966;28;20397;-78
2021/12/10 07:35:34;;;;;;;16.60;10.18;;;4.90;99.90;;;;;;5053064;28;20055;-78
2021/12/10 07:38:00;;;;;;;19.38;12.00;;;4.90;99.90;;;;;;5053074;28;20137;-78
2021/12/10 07:40:28;;;;;;;19.67;12.23;;;4.80;99.90;;;;;;5052867;28;20413;-78
2021/12/10 07:42:55;;;;;;;20.90;12.43;;;4.80;99.90;;;;;;5055763;28;20087;-78
2021/12/10 07:45:23;;;;;;;17.52;11.63;;;4.80;99.90;;;;;;5057331;28;20108;-78
2021/12/10 07:47:52;;;;;;;19.15;11.60;;;5.00;99.90;;;;;;5055652;28;20112;-78
2021/12/10 07:50:23;;;;;;;21.23;12.45;;;4.90;99.90;;;;;;5055418;28;20031;-78
2021/12/10 07:52:54;;;;;;;17.27;11.48;;;5.00;99.90;;;;;;5054728;28;20107;-76
2021/12/10 07:55:21;;;;;;;20.45;11.75;;;5.00;99.90;;;;;;5055525;28;20029;-77
2021/12/10 07:57:50;;;;;;;24.40;15.00;;;5.10;99.90;;;;;;5058661;28;20026;-77
2021/12/10 08:00:18;;;;;;;21.33;12.55;;;5.20;99.90;;;;;;5060259;28;20029;-80
2021/12/10 08:02:44;;;;;;;33.95;24.65;;;5.30;99.90;;;;;;5057378;28;20086;-78
2021/12/10 08:05:11;;;;;;;23.98;15.05;;;5.30;99.90;;;;;;5057219;28;20116;-78
2021/12/10 08:07:37;;;;;;;23.20;13.38;;;5.20;99.90;;;;;;5051401;28;20031;-78
2021/12/10 08:10:05;;;;;;;22.25;13.93;;;5.10;99.90;;;;;;5059699;28;20020;-79
2021/12/10 08:12:31;;;;;;;23.48;13.90;;;5.20;99.90;;;;;;5055894;28;20033;-76
2021/12/10 08:14:57;;;;;;;24.45;13.98;;;5.40;99.90;;;;;;5061221;28;20028;-76
2021/12/10 08:17:25;;;;;;;24.42;14.70;;;5.40;99.90;;;;;;5058805;28;20029;-76
2021/12/10 08:19:52;;;;;;;20.90;13.13;;;5.40;99.90;;;;;;5059859;28;20072;-76
2021/12/10 08:22:18;;;;;;;25.10;16.45;;;5.40;99.90;;;;;;5056015;28;20111;-77
2021/12/10 08:24:44;;;;;;;21.67;13.60;;;5.50;99.90;;;;;;5053528;28;20024;-76
2021/12/10 08:27:10;;;;;;;21.90;12.57;;;5.70;99.90;;;;;;5060357;28;20063;-76
2021/12/10 08:29:38;;;;;;;19.27;11.82;;;5.70;99.90;;;;;;5057410;28;20052;-76
2021/12/10 08:32:04;;;;;;;19.10;12.00;;;5.90;99.90;;;;;;5060813;28;20025;-77
2021/12/10 08:34:30;;;;;;;18.80;11.07;;;6.00;99.90;;;;;;5057328;28;20028;-77
2021/12/10 08:36:57;;;;;;;20.00;11.18;;;6.30;99.90;;;;;;5052535;28;20056;-78
2021/12/10 08:39:23;;;;;;;18.38;11.55;;;6.10;99.90;;;;;;5057186;28;20021;-77
2021/12/10 08:41:49;;;;;;;20.25;12.35;;;6.10;99.90;;;;;;5058064;28;20483;-77
2021/12/10 08:44:15;;;;;;;22.25;12.95;;;6.10;99.90;;;;;;5055789;28;20610;-77
2021/12/10 08:46:43;;;;;;;19.75;12.40;;;6.00;99.90;;;;;;5048609;28;20057;-77
2021/12/10 08:49:10;;;;;;;17.30;11.25;;;6.00;99.90;;;;;;5052873;28;20036;-77
2021/12/10 08:51:45;;;;;;;17.55;11.10;;;6.10;99.90;;;;;;5053236;28;20028;-77
2021/12/10 08:54:12;;;;;;;21.52;11.75;;;6.00;99.90;;;;;;5044165;28;20028;-77
2021/12/10 08:56:38;;;;;;;18.05;10.60;;;6.10;99.90;;;;;;5056561;28;20025;-77
2021/12/10 08:59:06;;;;;;;17.85;11.05;;;6.10;99.90;;;;;;5059001;28;20059;-77
2021/12/10 09:01:36;;;;;;;17.15;10.98;;;6.20;99.90;;;;;;5054420;28;20037;-77
2021/12/10 09:04:04;;;;;;;17.80;10.27;;;6.30;99.90;;;;;;5051094;28;20384;-77
2021/12/10 09:06:32;;;;;;;16.08;10.38;;;6.40;99.90;;;;;;5054373;28;20029;-77
2021/12/10 09:08:58;;;;;;;15.35;10.50;;;6.50;99.90;;;;;;5057589;28;20014;-77
2021/12/10 09:11:25;;;;;;;14.93;10.05;;;6.50;99.90;;;;;;5056909;28;20071;-77
2021/12/10 09:13:51;;;;;;;17.20;9.90;;;6.40;99.90;;;;;;5056290;28;20016;-77
2021/12/10 09:16:24;;;;;;;12.93;9.70;;;6.40;99.90;;;;;;5051459;28;20503;-77
2021/12/10 09:18:52;;;;;;;14.27;9.70;;;6.40;99.90;;;;;;5049988;28;20033;-77
2021/12/10 09:21:18;;;;;;;17.50;9.68;;;6.40;99.90;;;;;;5057285;28;20466;-77
2021/12/10 09:23:44;;;;;;;17.83;9.98;;;6.30;99.90;;;;;;5054536;28;20029;-77
2021/12/10 09:26:17;;;;;;;16.73;10.60;;;6.60;99.90;;;;;;5051977;28;20047;-77
2021/12/10 09:28:45;;;;;;;17.38;11.30;;;6.80;99.90;;;;;;5047099;28;20385;-77
2021/12/10 09:31:11;;;;;;;13.90;9.77;;;7.20;99.90;;;;;;5049654;28;20028;-77
2021/12/10 09:33:37;;;;;;;16.08;9.63;;;7.40;99.90;;;;;;5057571;28;20384;-77
2021/12/10 09:36:03;;;;;;;18.67;10.90;;;7.30;99.90;;;;;;5054593;28;20033;-77
2021/12/10 09:38:29;;;;;;;15.32;10.70;;;7.70;99.90;;;;;;5057625;28;20023;-77
2021/12/10 09:41:00;;;;;;;23.52;13.60;;;8.10;99.90;;;;;;5054839;28;20567;-77
2021/12/10 09:43:26;;;;;;;16.55;10.00;;;8.40;99.90;;;;;;5054630;28;20028;-77
2021/12/10 09:45:53;;;;;;;19.13;9.90;;;8.80;99.90;;;;;;5056887;28;20386;-78
2021/12/10 09:48:21;;;;;;;20.45;11.10;;;8.60;99.90;;;;;;5056644;28;20017;-77
2021/12/10 09:51:07;;;;;;;33.42;16.80;;;8.80;99.90;;;;;;5048391;28;20029;-77
2021/12/10 09:53:35;;;;;;;17.88;9.77;;;9.40;99.90;;;;;;5052930;28;20077;-77
2021/12/10 09:56:02;;;;;;;18.95;10.82;;;9.60;99.90;;;;;;5055558;28;20078;-77
2021/12/10 09:58:29;;;;;;;25.17;12.95;;;9.80;99.90;;;;;;5054100;28;20100;-77
2021/12/10 10:01:05;;;;;;;39.13;18.60;;;9.80;99.90;;;;;;5055527;28;20028;-77
2021/12/10 10:03:36;;;;;;;14.80;7.72;;;10.10;99.90;;;;;;5054709;28;20444;-77
2021/12/10 10:06:02;;;;;;;13.93;7.35;;;10.20;99.90;;;;;;5057776;28;20068;-77
2021/12/10 10:08:29;;;;;;;13.68;7.85;;;9.90;99.90;;;;;;5061493;28;20405;-77
2021/12/10 10:11:07;;;;;;;12.60;7.57;;;9.80;99.90;;;;;;5060800;28;20060;-77
2021/12/10 10:13:37;;;;;;;17.10;9.13;;;9.80;99.90;;;;;;5056470;28;20016;-77
2021/12/10 10:16:03;;;;;;;16.70;9.40;;;9.80;99.90;;;;;;5054664;28;20428;-77
2021/12/10 10:18:33;;;;;;;13.55;8.50;;;9.80;99.90;;;;;;5057607;28;20095;-77
2021/12/10 10:21:06;;;;;;;16.83;8.73;;;9.90;99.90;;;;;;5051158;28;20398;-77
2021/12/10 10:23:34;;;;;;;14.90;8.55;;;10.10;99.90;;;;;;5055418;28;20025;-77
2021/12/10 10:26:06;;;;;;;13.27;7.88;;;9.70;99.90;;;;;;5053082;28;20087;-77
2021/12/10 10:28:32;;;;;;;14.48;8.80;;;9.80;99.90;;;;;;5052342;28;20025;-77
2021/12/10 10:31:04;;;;;;;13.02;7.68;;;9.80;99.90;;;;;;5053502;28;20059;-77
2021/12/10 10:33:33;;;;;;;14.43;8.63;;;9.90;99.90;;;;;;5053167;28;20024;-77
2021/12/10 10:36:05;;;;;;;16.75;8.27;;;10.10;99.90;;;;;;5050814;28;20025;-77
2021/12/10 10:38:31;;;;;;;13.20;7.95;;;10.30;99.90;;;;;;5055367;28;20088;-77
2021/12/10 10:41:01;;;;;;;14.95;8.48;;;10.60;99.90;;;;;;5052533;28;20037;-78
2021/12/10 10:43:28;;;;;;;14.75;8.98;;;10.50;99.90;;;;;;5052515;28;20021;-77
2021/12/10 10:45:55;;;;;;;15.73;9.13;;;10.80;99.90;;;;;;5052909;28;20021;-77
2021/12/10 10:48:22;;;;;;;16.73;9.88;;;10.90;99.90;;;;;;5052159;28;20082;-78
2021/12/10 10:50:53;;;;;;;17.20;9.50;;;11.00;99.90;;;;;;5050815;28;20021;-77
2021/12/10 10:53:30;;;;;;;13.18;7.50;;;11.30;99.90;;;;;;5056182;28;20516;-77
2021/12/10 10:56:07;;;;;;;14.02;7.15;;;11.40;99.90;;;;;;5052545;28;20025;-78
2021/12/10 10:58:39;;;;;;;12.35;6.50;;;11.60;99.90;;;;;;5048512;28;20113;-77
2021/12/10 11:01:26;;;;;;;12.20;7.05;;;11.90;99.90;;;;;;5051838;28;20116;-78
2021/12/10 11:04:04;;;;;;;11.80;7.63;;;12.10;99.90;;;;;;5051472;28;20051;-78
2021/12/10 11:06:33;;;;;;;11.10;6.90;;;12.50;99.90;;;;;;5044413;28;20115;-77
2021/12/10 11:09:16;;;;;;;10.82;6.32;;;12.60;99.90;;;;;;5048618;28;20022;-77
2021/12/10 11:11:49;;;;;;;11.85;6.45;;;12.70;99.30;;;;;;5050615;28;20033;-77
2021/12/10 11:14:21;;;;;;;14.20;7.00;;;12.80;99.50;;;;;;5054093;28;20513;-77
2021/12/10 11:16:49;;;;;;;13.30;6.82;;;12.90;99.20;;;;;;5048568;28;20029;-78
2021/12/10 11:19:24;;;;;;;14.77;7.60;;;13.10;99.10;;;;;;5054367;28;20029;-77
2021/12/10 11:21:57;;;;;;;14.30;6.60;;;13.20;99.10;;;;;;5053610;28;20041;-78
2021/12/10 11:24:46;;;;;;;11.50;6.05;;;13.30;98.20;;;;;;5056952;28;20451;-78
2021/12/10 11:27:13;;;;;;;12.63;5.78;;;13.50;98.60;;;;;;5059094;28;20140;-77
2021/12/10 11:30:04;;;;;;;10.68;5.22;;;13.70;98.30;;;;;;5062255;28;20040;-78
2021/12/10 11:32:49;;;;;;;12.75;5.85;;;13.90;98.00;;;;;;5059648;28;20059;-78
2021/12/10 11:35:22;;;;;;;9.15;5.18;;;14.10;96.70;;;;;;5063624;28;20439;-78
2021/12/10 11:38:08;;;;;;;10.07;4.80;;;14.20;96.90;;;;;;5058141;28;20046;-77
2021/12/10 11:40:53;;;;;;;7.43;4.10;;;14.10;96.50;;;;;;5055362;28;20029;-77
2021/12/10 11:44:07;;;;;;;7.95;3.55;;;14.20;96.10;;;;;;5054901;28;20037;-77
2021/12/10 11:47:01;;;;;;;9.77;3.50;;;14.20;96.30;;;;;;5053604;28;20025;-77
2021/12/10 11:49:38;;;;;;;8.60;3.33;;;14.50;96.00;;;;;;5053938;28;20485;-78
2021/12/10 11:52:06;;;;;;;8.13;2.97;;;14.70;95.40;;;;;;5054207;28;20021;-78
2021/12/10 11:54:43;;;;;;;7.40;2.75;;;14.80;94.40;;;;;;5042029;28;20512;-78
2021/12/10 11:57:12;;;;;;;8.60;2.47;;;15.00;94.10;;;;;;5050052;28;20030;-77
2021/12/10 12:00:00;;;;;;;8.02;2.45;;;15.20;93.00;;;;;;5053598;28;20126;-77
2021/12/10 12:02:28;;;;;;;6.57;2.55;;;15.30;92.10;;;;;;5054575;28;20513;-77
2021/12/10 12:05:02;;;;;;;7.15;3.20;;;15.30;91.80;;;;;;5050193;28;20087;-76
2021/12/10 12:07:37;;;;;;;8.73;2.30;;;15.40;91.20;;;;;;5050594;28;20045;-76
2021/12/10 12:10:23;;;;;;;7.38;1.92;;;15.70;90.70;;;;;;5050779;28;20063;-76
2021/12/10 12:12:54;;;;;;;5.75;1.52;;;15.80;89.40;;;;;;5050539;28;20404;-76
2021/12/10 12:15:23;;;;;;;4.65;1.77;;;16.10;87.30;;;;;;5053274;28;20026;-79
2021/12/10 12:17:53;;;;;;;6.43;2.42;;;16.30;85.20;;;;;;5045767;28;20448;-77
2021/12/10 12:20:33;;;;;;;5.68;2.03;;;16.40;84.60;;;;;;5054465;28;20029;-77
2021/12/10 12:25:54;;;;;;;4.70;1.67;;;16.70;84.40;;;;;;5055197;28;20599;-79
2021/12/10 12:28:23;;;;;;;6.07;2.00;;;17.00;81.80;;;;;;5049882;28;20037;-79
2021/12/10 12:31:19;;;;;;;8.68;1.88;;;17.30;78.40;;;;;;5050218;28;20438;-79
2021/12/10 12:34:14;;;;;;;5.75;2.00;;;17.80;79.80;;;;;;5024575;28;20164;-78
2021/12/10 12:36:48;;;;;;;;;;;19.60;79.30;;;;;;5020476;28;20033;-79
2021/12/10 12:39:30;;;;;;;5.03;1.70;;;20.30;73.90;;;;;;5035496;28;19909;-79
2021/12/10 12:41:58;;;;;;;5.15;1.80;;;20.80;71.40;;;;;;5037914;28;20628;-79
2021/12/10 12:44:30;;;;;;;5.95;2.33;;;20.90;68.60;;;;;;5037945;28;20037;-78
2021/12/10 12:47:17;;;;;;;5.40;1.85;;;21.20;67.30;;;;;;5037550;28;20509;-79
2021/12/10 12:49:48;;;;;;;4.32;2.05;;;21.80;65.00;;;;;;5033153;28;20214;-80
2021/12/10 12:52:19;;;;;;;5.28;2.05;;;22.40;63.40;;;;;;5015852;28;20510;-80
2021/12/10 12:55:26;;;;;;;5.90;1.80;;;23.10;62.30;;;;;;5019449;28;20041;-80
2021/12/10 12:58:09;;;;;;;5.18;1.80;;;22.60;61.70;;;;;;4948830;29;20497;-77
2021/12/10 13:00:43;;;;;;;3.88;1.52;;;22.80;62.30;;;;;;4949401;28;20031;-78
2021/12/10 13:03:19;;;;;;;4.75;1.80;;;25.80;58.60;;;;;;4950318;28;20051;-78
2021/12/10 13:05:51;;;;;;;5.60;1.83;;;28.30;54.80;;;;;;4953176;28;20026;-80